createdAt,value
2024-03-11T00:00:47.805Z,90.29
2024-03-11T00:03:22.274Z,90.10
2024-03-11T00:05:56.964Z,89.55
2024-03-11T00:08:32.546Z,90.19
2024-03-11T00:11:07.684Z,88.74
2024-03-11T00:13:41.310Z,87.53
2024-03-11T00:16:17.427Z,86.19
2024-03-11T00:18:51.420Z,86.02
2024-03-11T00:21:25.155Z,85.95
2024-03-11T00:23:59.645Z,84.34
2024-03-11T00:26:34.565Z,82.46
2024-03-11T00:29:08.166Z,82.89
2024-03-11T00:31:42.150Z,82.46
2024-03-11T00:34:16.155Z,82.39
2024-03-11T00:36:50.599Z,82.88
2024-03-11T00:39:24.249Z,83.70
2024-03-11T00:41:59.130Z,81.95
2024-03-11T00:44:32.756Z,81.58
2024-03-11T00:47:07.727Z,84.67
2024-03-11T00:49:41.327Z,86.21
2024-03-11T00:52:15.408Z,88.52
2024-03-11T00:54:48.944Z,86.75
2024-03-11T00:57:26.253Z,87.68
2024-03-11T00:59:59.815Z,87.94
2024-03-11T01:02:33.774Z,89.57
2024-03-11T01:05:09.775Z,92.81
2024-03-11T01:07:47.212Z,94.26
2024-03-11T01:10:21.207Z,96.08
2024-03-11T01:12:56.126Z,97.36
2024-03-11T01:15:29.920Z,97.40
2024-03-11T01:18:05.390Z,97.69
2024-03-11T01:20:39.912Z,98.07
2024-03-11T01:23:13.588Z,97.11
2024-03-11T01:25:47.300Z,96.70
2024-03-11T01:28:22.678Z,96.31
2024-03-11T01:30:56.223Z,94.77
2024-03-11T01:33:30.136Z,94.21
2024-03-11T01:36:03.715Z,93.54
2024-03-11T01:38:37.297Z,93.27
2024-03-11T01:41:12.924Z,93.05
2024-03-11T01:43:47.863Z,93.41
2024-03-11T01:46:21.465Z,93.09
2024-03-11T01:48:55.667Z,94.95
2024-03-11T01:51:30.253Z,95.39
2024-03-11T01:54:04.656Z,96.42
2024-03-11T01:56:38.837Z,97.05
2024-03-11T01:59:14.633Z,98.16
2024-03-11T02:01:48.774Z,99.08
2024-03-11T02:04:22.281Z,99.24
2024-03-11T02:06:55.924Z,98.76
2024-03-11T02:09:29.480Z,98.81
2024-03-11T02:12:03.091Z,98.97
2024-03-11T02:14:38.113Z,98.61
2024-03-11T02:17:11.848Z,98.22
2024-03-11T02:19:45.485Z,98.23
2024-03-11T02:22:19.173Z,97.37
2024-03-11T02:24:54.588Z,97.60
2024-03-11T02:27:28.175Z,98.23
2024-03-11T02:30:01.979Z,97.25
2024-03-11T02:32:35.673Z,97.12
2024-03-11T02:35:12.363Z,95.74
2024-03-11T02:37:48.429Z,96.16
2024-03-11T02:40:27.939Z,97.40
2024-03-11T02:43:01.709Z,98.68
2024-03-11T02:45:35.730Z,98.82
2024-03-11T02:48:09.670Z,98.60
2024-03-11T02:50:43.305Z,98.86
2024-03-11T02:53:17.420Z,98.68
2024-03-11T02:55:52.381Z,98.65
2024-03-11T02:58:25.952Z,99.09
2024-03-11T03:00:59.533Z,100.00
2024-03-11T03:03:33.917Z,100.00
2024-03-11T03:06:08.208Z,100.00
2024-03-11T03:08:41.864Z,100.00
2024-03-11T03:11:17.841Z,100.00
2024-03-11T03:13:51.656Z,100.00
2024-03-11T03:16:25.418Z,100.00
2024-03-11T03:18:58.954Z,100.00
2024-03-11T03:21:32.501Z,100.00
2024-03-11T03:24:06.422Z,99.42
2024-03-11T03:26:41.394Z,96.58
2024-03-11T03:29:16.564Z,94.90
2024-03-11T03:31:50.160Z,94.23
2024-03-11T03:34:24.623Z,94.81
2024-03-11T03:36:58.196Z,94.31
2024-03-11T03:39:32.136Z,93.63
2024-03-11T03:42:07.621Z,93.33
2024-03-11T03:44:41.354Z,93.20
2024-03-11T03:47:15.373Z,93.47
2024-03-11T03:49:48.922Z,94.14
2024-03-11T03:52:22.569Z,92.92
2024-03-11T03:54:56.153Z,93.40
2024-03-11T03:57:31.026Z,92.86
2024-03-11T04:00:06.357Z,93.93
2024-03-11T04:02:41.057Z,93.89
2024-03-11T04:05:15.247Z,93.01
2024-03-11T04:07:48.989Z,92.80
2024-03-11T04:10:25.165Z,92.75
2024-03-11T04:13:00.200Z,92.10
2024-03-11T04:15:34.100Z,91.78
2024-03-11T04:18:07.784Z,91.88
2024-03-11T04:20:41.849Z,91.81
2024-03-11T04:23:15.508Z,91.43
2024-03-11T04:25:50.637Z,91.17
2024-03-11T04:28:29.676Z,91.55
2024-03-11T04:31:03.514Z,91.95
2024-03-11T04:33:37.133Z,92.29
2024-03-11T04:36:11.032Z,91.48
2024-03-11T04:38:45.632Z,91.56
2024-03-11T04:41:20.178Z,91.29
2024-03-11T04:43:55.378Z,91.09
2024-03-11T04:46:29.069Z,91.02
2024-03-11T04:49:02.844Z,91.32
2024-03-11T04:51:36.411Z,91.98
2024-03-11T04:54:10.414Z,91.97
2024-03-11T04:56:44.598Z,91.70
2024-03-11T04:59:19.856Z,92.14
2024-03-11T05:01:53.708Z,92.10
2024-03-11T05:04:27.522Z,91.94
2024-03-11T05:07:01.034Z,92.36
2024-03-11T05:09:34.567Z,92.89
2024-03-11T05:12:08.954Z,92.73
2024-03-11T05:14:43.880Z,93.15
2024-03-11T05:17:17.479Z,93.27
2024-03-11T05:19:52.492Z,93.85
2024-03-11T05:22:26.045Z,93.83
2024-03-11T05:24:59.581Z,94.16
2024-03-11T05:27:33.106Z,94.61
2024-03-11T05:30:09.684Z,95.81
2024-03-11T05:32:43.386Z,96.44
2024-03-11T05:35:19.965Z,96.42
2024-03-11T05:37:56.600Z,95.93
2024-03-11T05:40:38.924Z,95.48
2024-03-11T05:43:18.759Z,95.32
2024-03-11T05:45:58.909Z,94.99
2024-03-11T05:48:33.297Z,95.90
2024-03-11T05:51:07.092Z,95.12
2024-03-11T05:53:42.144Z,95.43
2024-03-11T05:56:20.985Z,95.22
2024-03-11T05:58:54.571Z,95.18
2024-03-11T06:01:29.452Z,95.75
2024-03-11T06:04:03.837Z,95.56
2024-03-11T06:06:37.377Z,96.30
2024-03-11T06:09:12.688Z,95.75
2024-03-11T06:11:47.593Z,96.14
2024-03-11T06:14:21.230Z,97.49
2024-03-11T06:16:56.152Z,98.07
2024-03-11T06:19:29.699Z,98.80
2024-03-11T06:22:03.979Z,100.00
2024-03-11T06:24:38.679Z,100.00
2024-03-11T06:27:12.914Z,100.00
2024-03-11T06:29:46.934Z,99.93
2024-03-11T06:32:21.972Z,100.00
2024-03-11T06:34:55.902Z,100.00
2024-03-11T06:37:29.454Z,99.64
2024-03-11T06:40:04.311Z,98.92
2024-03-11T06:42:38.102Z,97.78
2024-03-11T06:45:11.690Z,96.93
2024-03-11T06:47:46.766Z,96.08
2024-03-11T06:50:21.635Z,94.05
2024-03-11T06:52:55.522Z,93.45
2024-03-11T06:55:29.242Z,91.90
2024-03-11T06:58:02.835Z,92.17
2024-03-11T07:00:36.407Z,92.67
2024-03-11T07:03:11.985Z,91.90
2024-03-11T07:05:45.645Z,90.90
2024-03-11T07:08:19.265Z,88.55
2024-03-11T07:10:52.944Z,88.17
2024-03-11T07:13:27.095Z,87.31
2024-03-11T07:16:01.202Z,86.26
2024-03-11T07:18:37.828Z,85.29
2024-03-11T07:21:11.918Z,84.60
2024-03-11T07:23:49.416Z,81.59
2024-03-11T07:26:23.149Z,78.76
2024-03-11T07:28:56.666Z,76.06
2024-03-11T07:31:30.229Z,75.67
2024-03-11T07:34:05.521Z,74.51
2024-03-11T07:36:39.060Z,74.21
2024-03-11T07:39:12.615Z,73.42
2024-03-11T07:41:46.800Z,74.00
2024-03-11T07:44:20.406Z,72.73
2024-03-11T07:46:54.024Z,75.50
2024-03-11T07:49:30.740Z,74.54
2024-03-11T07:52:05.118Z,74.65
2024-03-11T07:54:38.830Z,75.00
2024-03-11T07:57:12.632Z,72.90
2024-03-11T07:59:46.202Z,74.58
2024-03-11T08:02:20.362Z,71.97
2024-03-11T08:04:56.883Z,72.62
2024-03-11T08:07:33.393Z,73.94
2024-03-11T08:10:10.602Z,74.68
2024-03-11T08:12:45.734Z,73.21
2024-03-11T08:15:21.921Z,74.33
2024-03-11T08:17:56.940Z,73.44
2024-03-11T08:20:32.506Z,72.62
2024-03-11T08:23:07.026Z,73.26
2024-03-11T08:25:46.099Z,72.69
2024-03-11T08:28:21.495Z,72.57
2024-03-11T08:30:55.685Z,72.30
2024-03-11T08:33:29.651Z,71.71
2024-03-11T08:36:06.162Z,73.45
2024-03-11T08:38:39.741Z,72.68
2024-03-11T08:41:15.460Z,74.69
2024-03-11T08:43:49.010Z,74.70
2024-03-11T08:46:22.572Z,73.48
2024-03-11T08:48:56.136Z,73.10
2024-03-11T08:51:31.032Z,74.50
2024-03-11T08:54:04.612Z,75.04
2024-03-11T08:56:38.435Z,74.95
2024-03-11T08:59:13.675Z,74.49
2024-03-11T09:01:47.312Z,74.88
2024-03-11T09:04:20.842Z,74.74
2024-03-11T09:06:57.641Z,75.47
2024-03-11T09:09:31.238Z,74.64
2024-03-11T09:12:06.452Z,75.05
2024-03-11T09:14:40.871Z,73.85
2024-03-11T09:17:14.488Z,73.95
2024-03-11T09:19:48.895Z,72.41
2024-03-11T09:22:23.912Z,72.18
2024-03-11T09:24:57.817Z,71.46
2024-03-11T09:27:31.437Z,69.55
2024-03-11T09:30:05.877Z,69.43
2024-03-11T09:32:40.996Z,70.02
2024-03-11T09:35:17.730Z,69.59
2024-03-11T09:37:53.510Z,70.00
2024-03-11T09:40:29.946Z,70.21
2024-03-11T09:43:12.844Z,69.43
2024-03-11T09:45:48.858Z,68.66
2024-03-11T09:48:24.477Z,69.09
2024-03-11T09:50:58.975Z,69.79
2024-03-11T09:53:35.449Z,69.32
2024-03-11T09:56:10.239Z,68.52
2024-03-11T09:58:48.084Z,68.74
2024-03-11T10:01:25.099Z,68.86
2024-03-11T10:04:00.131Z,66.97
2024-03-11T10:06:34.779Z,67.86
2024-03-11T10:09:20.352Z,68.17
2024-03-11T10:12:04.302Z,68.25
2024-03-11T10:14:40.203Z,67.33
2024-03-11T10:17:22.283Z,67.78
2024-03-11T10:19:57.405Z,67.59
2024-03-11T10:22:32.526Z,67.68
2024-03-11T10:25:09.738Z,66.02
2024-03-11T10:27:44.489Z,67.78
2024-03-11T10:30:23.066Z,66.62
2024-03-11T10:32:57.295Z,67.48
2024-03-11T10:35:35.134Z,66.11
2024-03-11T10:38:12.043Z,64.36
2024-03-11T10:40:47.206Z,64.30
2024-03-11T10:43:22.744Z,64.50
2024-03-11T10:46:00.140Z,65.44
2024-03-11T10:48:35.793Z,65.90
2024-03-11T10:51:10.462Z,67.21
2024-03-11T10:53:44.309Z,66.12
2024-03-11T10:56:25.001Z,66.42
2024-03-11T10:58:58.566Z,65.68
2024-03-11T11:01:35.405Z,65.93
2024-03-11T11:04:15.054Z,66.38
2024-03-11T11:06:53.058Z,66.30
2024-03-11T11:09:28.665Z,66.59
2024-03-11T11:12:05.679Z,67.11
2024-03-11T11:14:41.359Z,66.95
2024-03-11T11:17:18.397Z,65.50
2024-03-11T11:19:53.636Z,65.71
2024-03-11T11:22:27.670Z,65.46
2024-03-11T11:25:02.347Z,65.37
2024-03-11T11:27:38.542Z,65.53
2024-03-11T11:30:18.372Z,65.22
2024-03-11T11:32:52.742Z,64.68
2024-03-11T11:35:37.163Z,63.83
2024-03-11T11:38:30.453Z,62.54
2024-03-11T11:41:25.174Z,63.87
2024-03-11T11:44:00.039Z,64.33
2024-03-11T11:46:43.408Z,64.54
2024-03-11T11:49:18.615Z,65.47
2024-03-11T11:51:53.232Z,64.94
2024-03-11T11:54:35.888Z,65.54
2024-03-11T11:57:15.164Z,66.59
2024-03-11T11:59:59.878Z,66.96
2024-03-11T12:02:36.625Z,67.46
2024-03-11T12:05:16.419Z,67.48
2024-03-11T12:07:49.980Z,67.97
2024-03-11T12:10:25.190Z,67.72
2024-03-11T12:12:57.906Z,67.45
2024-03-11T12:15:35.239Z,68.63
2024-03-11T12:18:14.744Z,69.13
2024-03-11T12:20:48.368Z,69.45
2024-03-11T12:23:24.038Z,69.36
2024-03-11T12:25:58.205Z,68.70
2024-03-11T12:28:31.952Z,68.80
2024-03-11T12:31:07.434Z,68.83
2024-03-11T12:33:42.008Z,68.68
2024-03-11T12:36:15.944Z,69.22
2024-03-11T12:38:51.776Z,70.36
2024-03-11T12:41:42.085Z,69.90
2024-03-11T12:44:18.169Z,69.62
2024-03-11T12:46:55.306Z,69.84
2024-03-11T12:49:29.872Z,71.04
2024-03-11T12:52:05.174Z,72.77
2024-03-11T12:54:39.430Z,73.70
2024-03-11T12:57:18.116Z,73.74
2024-03-11T13:00:00.643Z,75.11
2024-03-11T13:02:37.312Z,76.29
2024-03-11T13:05:17.968Z,76.46
2024-03-11T13:07:52.505Z,76.18
2024-03-11T13:10:26.075Z,76.53
2024-03-11T13:12:59.740Z,77.95
2024-03-11T13:15:36.186Z,77.94
2024-03-11T13:18:13.318Z,76.90
2024-03-11T13:20:47.072Z,77.09
2024-03-11T13:23:22.855Z,76.75
2024-03-11T13:25:56.421Z,76.68
2024-03-11T13:28:30.685Z,76.72
2024-03-11T13:31:10.202Z,77.01
2024-03-11T13:33:47.379Z,76.64
2024-03-11T13:36:21.236Z,76.03
2024-03-11T13:38:55.237Z,76.57
2024-03-11T13:41:28.876Z,76.30
2024-03-11T13:44:11.576Z,75.98
2024-03-11T13:46:47.971Z,75.94
2024-03-11T13:49:23.373Z,76.21
2024-03-11T13:51:57.366Z,76.29
2024-03-11T13:54:31.061Z,75.73
2024-03-11T13:57:06.891Z,72.54
2024-03-11T13:59:42.265Z,72.09
2024-03-11T14:02:15.978Z,73.67
2024-03-11T14:04:50.846Z,72.88
2024-03-11T14:07:25.837Z,71.86
2024-03-11T14:10:00.398Z,72.14
2024-03-11T14:12:37.359Z,72.35
2024-03-11T14:15:12.436Z,72.08
2024-03-11T14:17:48.585Z,71.16
2024-03-11T14:20:25.697Z,72.08
2024-03-11T14:23:00.092Z,72.69
2024-03-11T14:25:34.292Z,72.86
2024-03-11T14:28:08.373Z,72.76
2024-03-11T14:30:42.365Z,72.39
2024-03-11T14:33:17.063Z,72.92
2024-03-11T14:35:52.442Z,72.47
2024-03-11T14:38:26.671Z,73.43
2024-03-11T14:41:01.140Z,73.03
2024-03-11T14:43:34.770Z,72.81
2024-03-11T14:46:08.676Z,72.28
2024-03-11T14:48:47.877Z,72.75
2024-03-11T14:51:23.464Z,73.76
2024-03-11T14:53:57.530Z,73.74
2024-03-11T14:56:31.102Z,73.93
2024-03-11T14:59:04.693Z,75.71
2024-03-11T15:01:38.832Z,76.36
2024-03-11T15:04:12.801Z,77.27
2024-03-11T15:06:47.759Z,78.17
2024-03-11T15:09:22.409Z,77.72
2024-03-11T15:11:56.230Z,77.34
2024-03-11T15:14:30.226Z,77.80
2024-03-11T15:17:03.930Z,77.63
2024-03-11T15:19:37.804Z,78.00
2024-03-11T15:22:14.096Z,78.46
2024-03-11T15:24:47.801Z,78.77
2024-03-11T15:27:21.514Z,78.91
2024-03-11T15:29:55.073Z,78.89
2024-03-11T15:32:28.615Z,78.50
2024-03-11T15:35:03.337Z,78.10
2024-03-11T15:37:39.330Z,77.50
2024-03-11T15:40:13.549Z,77.55
2024-03-11T15:42:47.139Z,77.46
2024-03-11T15:45:20.829Z,77.30
2024-03-11T15:47:57.700Z,77.94
2024-03-11T15:50:33.838Z,79.23
2024-03-11T15:53:11.226Z,79.27
2024-03-11T15:55:47.108Z,78.55
2024-03-11T15:58:20.852Z,78.97
2024-03-11T16:00:54.401Z,79.31
2024-03-11T16:03:30.318Z,79.51
2024-03-11T16:06:03.879Z,80.41
2024-03-11T16:08:38.816Z,79.34
2024-03-11T16:11:14.485Z,79.22
2024-03-11T16:13:48.248Z,80.33
2024-03-11T16:16:22.276Z,81.00
2024-03-11T16:18:57.391Z,81.06
2024-03-11T16:21:32.101Z,81.95
2024-03-11T16:24:07.734Z,82.05
2024-03-11T16:26:41.832Z,81.83
2024-03-11T16:29:15.287Z,83.33
2024-03-11T16:31:48.824Z,83.52
2024-03-11T16:34:21.735Z,83.67
2024-03-11T16:36:55.503Z,83.22
2024-03-11T16:39:29.494Z,82.34
2024-03-11T16:42:03.137Z,84.01
2024-03-11T16:44:36.780Z,85.57
2024-03-11T16:47:10.560Z,85.29
2024-03-11T16:49:44.063Z,85.76
2024-03-11T16:52:20.345Z,86.45
2024-03-11T16:54:54.287Z,86.63
2024-03-11T16:57:28.559Z,86.60
2024-03-11T17:00:01.726Z,87.29
2024-03-11T17:02:35.450Z,86.50
2024-03-11T17:05:08.686Z,86.12
2024-03-11T17:07:45.449Z,85.81
2024-03-11T17:10:24.683Z,85.44
2024-03-11T17:13:02.330Z,84.93
2024-03-11T17:15:38.857Z,86.42
2024-03-11T17:18:13.625Z,88.59
2024-03-11T17:20:52.083Z,87.31
2024-03-11T17:23:27.420Z,88.10
2024-03-11T17:26:02.793Z,88.63
2024-03-11T17:28:35.851Z,89.99
2024-03-11T17:31:13.241Z,89.12
2024-03-11T17:33:48.629Z,88.48
2024-03-11T17:36:22.597Z,89.63
2024-03-11T17:38:57.222Z,90.02
2024-03-11T17:41:32.132Z,90.81
2024-03-11T17:44:04.965Z,90.48
2024-03-11T17:46:38.584Z,89.73
2024-03-11T17:49:12.336Z,90.65
2024-03-11T17:51:46.131Z,91.03
2024-03-11T17:54:19.734Z,91.45
2024-03-11T17:56:53.664Z,91.80
2024-03-11T17:59:27.576Z,91.72
2024-03-11T18:02:00.839Z,91.47
2024-03-11T18:04:34.918Z,91.22
2024-03-11T18:07:07.565Z,91.20
2024-03-11T18:09:42.882Z,91.20
2024-03-11T18:12:16.933Z,90.76
2024-03-11T18:14:51.117Z,90.23
2024-03-11T18:17:23.806Z,87.71
2024-03-11T18:19:57.365Z,88.85
2024-03-11T18:22:31.364Z,87.85
2024-03-11T18:25:05.360Z,86.18
2024-03-11T18:27:41.987Z,87.17
2024-03-11T18:30:18.177Z,88.19
2024-03-11T18:32:54.139Z,87.30
2024-03-11T18:35:28.571Z,87.48
2024-03-11T18:38:01.754Z,86.79
2024-03-11T18:40:35.821Z,86.74
2024-03-11T18:43:12.250Z,86.01
2024-03-11T18:45:46.806Z,86.26
2024-03-11T18:48:21.408Z,89.07
2024-03-11T18:50:55.205Z,88.92
2024-03-11T18:53:29.233Z,89.14
2024-03-11T18:56:03.566Z,89.81
2024-03-11T18:58:38.563Z,89.37
2024-03-11T19:01:12.425Z,88.84
2024-03-11T19:03:46.513Z,87.55
2024-03-11T19:06:20.351Z,87.04
2024-03-11T19:08:56.320Z,87.32
2024-03-11T19:11:30.700Z,87.43
2024-03-11T19:14:06.835Z,87.21
2024-03-11T19:16:41.065Z,86.71
2024-03-11T19:19:15.433Z,85.58
2024-03-11T19:21:49.447Z,86.49
2024-03-11T19:24:24.105Z,86.31
2024-03-11T19:27:03.165Z,87.25
2024-03-11T19:29:38.703Z,87.43
2024-03-11T19:32:13.676Z,88.31
2024-03-11T19:34:47.224Z,90.65
2024-03-11T19:38:00.099Z,95.21
2024-03-11T19:40:42.717Z,97.15
2024-03-11T19:43:34.851Z,97.94
2024-03-11T19:46:45.756Z,98.81
2024-03-11T19:49:51.054Z,100.00
2024-03-11T19:53:03.664Z,100.00
2024-03-11T19:56:03.816Z,100.00
2024-03-11T19:59:24.340Z,99.32
2024-03-11T20:02:25.390Z,99.16
2024-03-11T20:05:33.407Z,99.48
2024-03-11T20:08:31.492Z,100.00
2024-03-11T20:11:51.079Z,100.00
2024-03-11T20:14:47.125Z,100.00
2024-03-11T20:17:43.984Z,100.00
2024-03-11T20:20:51.142Z,100.00
2024-03-11T20:23:59.840Z,100.00
2024-03-11T20:26:40.879Z,100.00
2024-03-11T20:29:23.877Z,100.00
2024-03-11T20:32:02.981Z,100.00
2024-03-11T20:34:37.427Z,100.00
2024-03-11T20:37:13.391Z,100.00
2024-03-11T20:39:48.441Z,100.00
2024-03-11T20:42:22.060Z,100.00
2024-03-11T20:44:55.798Z,100.00
2024-03-11T20:47:29.460Z,100.00
2024-03-11T20:50:03.026Z,100.00
2024-03-11T20:52:39.352Z,100.00
2024-03-11T20:55:14.615Z,100.00
2024-03-11T20:57:48.169Z,100.00
2024-03-11T21:00:22.177Z,100.00
2024-03-11T21:02:56.495Z,100.00
2024-03-11T21:05:30.093Z,100.00
2024-03-11T21:08:09.956Z,100.00
2024-03-11T21:10:48.577Z,100.00
2024-03-11T21:13:22.168Z,100.00
2024-03-11T21:15:58.171Z,100.00
2024-03-11T21:18:32.311Z,100.00
2024-03-11T21:21:10.652Z,100.00
2024-03-11T21:23:53.554Z,100.00
2024-03-11T21:26:39.270Z,100.00
2024-03-11T21:29:13.213Z,100.00
2024-03-11T21:31:46.751Z,100.00
2024-03-11T21:34:21.027Z,100.00
2024-03-11T21:36:54.642Z,100.00
2024-03-11T21:39:28.552Z,100.00
2024-03-11T21:42:03.549Z,100.00
2024-03-11T21:44:37.285Z,100.00
2024-03-11T21:47:11.119Z,100.00
2024-03-11T21:49:44.677Z,100.00
2024-03-11T21:52:18.750Z,100.00
2024-03-11T21:54:52.520Z,100.00
2024-03-11T21:57:27.813Z,100.00
2024-03-11T22:00:02.305Z,100.00
2024-03-11T22:02:47.459Z,100.00
2024-03-11T22:05:21.151Z,100.00
2024-03-11T22:07:54.805Z,100.00
2024-03-11T22:10:28.488Z,100.00
2024-03-11T22:13:05.716Z,100.00
2024-03-11T22:15:40.097Z,100.00
2024-03-11T22:18:14.512Z,100.00
2024-03-11T22:20:48.206Z,100.00
2024-03-11T22:23:21.815Z,100.00
2024-03-11T22:25:55.521Z,100.00
2024-03-11T22:28:30.487Z,100.00
2024-03-11T22:31:07.252Z,100.00
2024-03-11T22:33:41.004Z,100.00
2024-03-11T22:36:14.647Z,100.00
2024-03-11T22:38:48.631Z,100.00
2024-03-11T22:41:29.117Z,100.00
2024-03-11T22:44:04.614Z,100.00
2024-03-11T22:46:41.892Z,100.00
2024-03-11T22:49:26.619Z,100.00
2024-03-11T22:52:01.169Z,100.00
2024-03-11T22:54:34.987Z,100.00
2024-03-11T22:57:09.902Z,100.00
2024-03-11T22:59:44.912Z,100.00
2024-03-11T23:02:19.399Z,100.00
2024-03-11T23:04:55.106Z,100.00
2024-03-11T23:07:29.214Z,100.00
2024-03-11T23:10:05.948Z,100.00
2024-03-11T23:12:42.480Z,100.00
2024-03-11T23:15:23.501Z,100.00
2024-03-11T23:17:57.157Z,100.00
2024-03-11T23:20:31.740Z,100.00
2024-03-11T23:23:06.253Z,100.00
2024-03-11T23:25:41.765Z,100.00
2024-03-11T23:28:16.296Z,100.00
2024-03-11T23:30:55.335Z,100.00
2024-03-11T23:33:29.196Z,100.00
2024-03-11T23:36:03.749Z,100.00
2024-03-11T23:38:37.870Z,100.00
2024-03-11T23:41:13.270Z,100.00
2024-03-11T23:43:48.167Z,100.00
2024-03-11T23:46:23.195Z,100.00
2024-03-11T23:48:57.582Z,100.00
2024-03-11T23:51:31.170Z,100.00
2024-03-11T23:54:07.431Z,100.00
2024-03-11T23:56:44.243Z,100.00
2024-03-11T23:59:19.927Z,100.00
